createdAt,value
2023-03-02T00:14:18.844Z,0.88
2023-03-02T00:44:18.879Z,1.31
2023-03-02T01:14:18.858Z,1.5
2023-03-02T01:44:18.869Z,1.5
2023-03-02T02:14:18.881Z,1.06
2023-03-02T02:44:18.879Z,0.5
2023-03-02T03:14:18.884Z,-0.19
2023-03-02T03:44:18.877Z,-0.13
2023-03-02T04:14:18.882Z,0.25
2023-03-02T04:44:18.906Z,0.94
2023-03-02T05:14:18.898Z,1.06
2023-03-02T05:44:18.896Z,1.13
2023-03-02T06:14:18.887Z,1.38
2023-03-02T06:44:18.900Z,1.81
2023-03-02T07:14:18.913Z,2.31
2023-03-02T07:44:18.917Z,3.06
2023-03-02T08:14:18.916Z,3.75
2023-03-02T08:44:18.933Z,4.44
2023-03-02T09:14:18.927Z,5.19
2023-03-02T09:44:18.950Z,6.19
2023-03-02T10:14:18.949Z,7.13
2023-03-02T10:44:18.947Z,8.06
2023-03-02T11:14:18.954Z,8.75
2023-03-02T11:44:18.957Z,9.63
2023-03-02T12:14:18.960Z,10.5
2023-03-02T12:44:18.976Z,12
2023-03-02T13:14:19.011Z,13.44
2023-03-02T13:44:18.966Z,14.25
2023-03-02T14:14:18.952Z,15.13
2023-03-02T14:44:18.964Z,14.69
2023-03-02T15:14:18.996Z,15.06
2023-03-02T15:44:18.992Z,13.44
2023-03-02T16:14:18.996Z,12.44
2023-03-02T16:44:19.019Z,11.19
2023-03-02T17:14:19.014Z,10.13
2023-03-02T17:44:19.014Z,8.94
2023-03-02T18:14:19.024Z,8
2023-03-02T18:44:19.019Z,7.25
2023-03-02T19:14:19.030Z,6.5
2023-03-02T19:44:19.033Z,6
2023-03-02T20:14:32.605Z,4.88
2023-03-02T20:44:19.028Z,4.19
2023-03-02T21:14:19.034Z,3.88
2023-03-02T21:44:19.043Z,3.44
2023-03-02T22:14:19.063Z,3
2023-03-02T22:44:19.103Z,2.56
2023-03-02T23:14:19.089Z,2.25
2023-03-02T23:44:19.095Z,2
